Time;durP1;ratioP1;P1;durP2;ratioP2;P2;SDS_P1;SDS_P2;PMS_P1;PMS_P2;Temp;Humidity;BMP_temperature;BMP_pressure;BME280_temperature;BME280_humidity;BME280_pressure;Samples;Min_cycle;Max_cycle;Signal;HPM_P1;HPM_P2
2022/05/31 04:33:27;;;;;;;;;5.25;3.00;;;;;15.97;47.69;100799.22;5099303;27;45359;-62
2022/05/31 04:36:04;;;;;;;;;6.00;4.75;;;;;15.99;47.42;100800.00;5101524;27;45379;-61
2022/05/31 04:38:29;;;;;;;;;6.00;6.00;;;;;15.93;47.91;100801.25;5101309;27;46577;-61
2022/05/31 04:40:55;;;;;;;;;5.75;5.25;;;;;15.90;47.94;100815.00;5101432;27;45236;-62
2022/05/31 04:43:20;;;;;;;;;6.00;6.00;;;;;15.78;48.48;100808.56;5083352;27;45322;-62
2022/05/31 04:45:46;;;;;;;;;5.75;5.75;;;;;15.72;48.25;100808.09;5079436;28;47312;-62
2022/05/31 04:48:12;;;;;;;;;5.50;5.50;;;;;15.58;48.54;100789.22;5092602;27;45164;-61
2022/05/31 04:50:37;;;;;;;;;4.00;4.00;;;;;15.69;48.79;100811.88;5099752;27;45403;-62
2022/05/31 04:53:02;;;;;;;;;4.00;4.00;;;;;15.63;48.47;100808.72;5104727;27;45436;-62
2022/05/31 04:55:31;;;;;;;;;7.50;5.00;;;;;15.71;48.97;100812.66;5101135;27;45461;-61
2022/05/31 04:57:56;;;;;;;;;7.00;5.00;;;;;15.72;48.76;100810.81;5100373;27;45427;-61
2022/05/31 05:00:22;;;;;;;;;5.00;5.00;;;;;15.73;48.29;100817.97;5099307;27;45405;-63
2022/05/31 05:02:47;;;;;;;;;1.75;1.75;;;;;15.70;48.54;100815.44;5101227;27;45415;-62
2022/05/31 05:05:13;;;;;;;;;7.25;5.75;;;;;15.68;48.60;100820.94;5100976;27;45355;-61
2022/05/31 05:07:38;;;;;;;;;3.25;3.25;;;;;15.64;48.30;100818.56;5101212;27;45378;-61
2022/05/31 05:10:08;;;;;;;;;6.00;6.00;;;;;15.63;48.98;100812.28;5100902;27;45340;-61
2022/05/31 05:12:33;;;;;;;;;6.75;6.50;;;;;15.75;48.67;100818.69;5101953;27;45402;-61
2022/05/31 05:14:59;;;;;;;;;4.25;4.25;;;;;15.76;48.43;100821.31;5087084;27;45459;-61
2022/05/31 05:17:25;;;;;;;;;4.00;4.00;;;;;15.80;48.29;100827.38;5082162;27;46962;-60
2022/05/31 05:19:51;;;;;;;;;8.50;6.00;;;;;15.77;48.25;100833.00;5100615;27;45381;-62
2022/05/31 05:22:16;;;;;;;;;7.25;6.00;;;;;15.76;48.15;100839.34;5101156;27;45430;-61
2022/05/31 05:24:42;;;;;;;;;5.25;5.25;;;;;15.67;48.58;100831.84;5100638;27;45596;-61
2022/05/31 05:27:08;;;;;;;;;7.50;7.50;;;;;15.72;48.14;100837.84;5100802;27;45857;-61
2022/05/31 05:32:17;;;;;;;;;8.50;5.00;;;;;15.81;48.27;100837.25;5100652;27;45378;-62
2022/05/31 05:34:42;;;;;;;;;6.00;4.75;;;;;15.84;48.13;100834.31;5099237;27;45386;-61
2022/05/31 05:37:08;;;;;;;;;5.00;5.00;;;;;15.88;48.22;100831.31;5100598;27;45304;-61
2022/05/31 05:39:33;;;;;;;;;5.00;4.00;;;;;15.95;48.00;100839.88;5100451;27;45358;-62
2022/05/31 05:41:59;;;;;;;;;5.00;5.00;;;;;16.01;47.92;100846.72;5099265;27;45768;-60
2022/05/31 05:44:25;;;;;;;;;5.00;5.00;;;;;16.03;47.98;100840.25;5100031;27;45880;-61
2022/05/31 05:46:51;;;;;;;;;5.00;5.00;;;;;16.05;48.20;100832.91;5100318;27;45721;-62
2022/05/31 05:49:16;;;;;;;;;4.00;4.00;;;;;16.12;47.47;100839.63;5100172;27;45348;-61
2022/05/31 05:51:45;;;;;;;;;6.25;4.75;;;;;16.24;47.30;100846.94;5099957;27;45291;-61
2022/05/31 05:54:10;;;;;;;;;5.00;5.00;;;;;16.35;47.20;100851.59;5081848;27;46063;-61
2022/05/31 05:56:36;;;;;;;;;3.00;3.00;;;;;16.41;46.64;100850.31;5100247;27;45409;-61
2022/05/31 05:59:01;;;;;;;;;6.00;4.25;;;;;16.45;47.04;100855.41;5081497;27;45490;-61
2022/05/31 06:01:39;;;;;;;;;5.50;5.50;;;;;16.48;46.42;100860.63;5100233;27;45443;-62
2022/05/31 06:04:11;;;;;;;;;4.50;4.00;;;;;16.53;46.24;100857.56;5081512;27;47743;-60
2022/05/31 06:06:41;;;;;;;;;4.00;4.00;;;;;16.57;46.86;100851.88;5081460;27;47264;-61
2022/05/31 06:09:11;;;;;;;;;5.00;5.00;;;;;16.59;46.00;100854.44;5080796;27;45302;-61
2022/05/31 06:11:46;;;;;;;;;5.75;5.00;;;;;16.59;46.00;100854.44;5081654;27;45530;-60
2022/05/31 06:14:21;;;;;;;;;5.00;5.00;;;;;16.61;45.91;100852.53;5099557;27;45383;-60
2022/05/31 06:16:51;;;;;;;;;4.25;4.25;;;;;16.62;45.76;100848.84;5099721;27;45338;-60
2022/05/31 06:19:25;;;;;;;;;5.00;5.00;;;;;16.28;45.74;100788.91;5099760;27;45224;-62
2022/05/31 06:21:53;;;;;;;;;6.75;5.00;;;;;16.72;45.50;100852.66;5099947;27;45283;-62
2022/05/31 06:24:20;;;;;;;;;5.25;5.25;;;;;16.68;45.70;100851.13;5099232;27;45594;-62
2022/05/31 06:26:46;;;;;;;;;6.25;5.50;;;;;16.78;45.53;100868.47;5081201;27;46149;-61
2022/05/31 06:29:11;;;;;;;;;7.50;7.50;;;;;16.80;45.18;100861.13;5099546;27;45335;-62
2022/05/31 06:31:38;;;;;;;;;5.00;4.75;;;;;16.83;45.52;100866.34;5099709;27;45359;-62
2022/05/31 06:34:03;;;;;;;;;6.25;5.75;;;;;16.75;45.35;100844.34;5099346;27;45484;-61
2022/05/31 06:36:29;;;;;;;;;7.00;7.00;;;;;16.97;44.91;100862.63;5099908;27;45373;-62
2022/05/31 06:38:54;;;;;;;;;6.75;5.50;;;;;17.05;44.51;100857.53;5099574;27;45385;-62
2022/05/31 06:41:20;;;;;;;;;7.50;6.25;;;;;17.13;43.95;100860.56;5099679;27;45524;-61
2022/05/31 06:43:45;;;;;;;;;5.50;5.50;;;;;17.05;43.53;100865.66;5097993;27;45416;-62
2022/05/31 06:46:11;;;;;;;;;6.25;6.25;;;;;16.98;43.80;100864.38;5098121;27;46890;-62
2022/05/31 06:48:37;;;;;;;;;8.75;8.00;;;;;16.99;44.63;100866.97;5080711;27;45412;-61
2022/05/31 06:51:07;;;;;;;;;6.25;6.25;;;;;17.08;44.71;100867.31;5099479;27;45281;-62
2022/05/31 06:59:01;;;;;;;;;6.00;6.00;;;;;17.17;44.67;100858.53;5099172;27;45450;-62
2022/05/31 07:01:31;;;;;;;;;6.00;6.00;;;;;17.19;44.61;100870.09;5081261;27;45525;-61
2022/05/31 07:03:58;;;;;;;;;7.00;6.75;;;;;17.10;43.81;100868.91;5080774;27;46835;-62
2022/05/31 07:06:24;;;;;;;;;6.00;6.00;;;;;17.05;43.84;100862.09;5080912;27;45422;-61
2022/05/31 07:08:49;;;;;;;;;6.00;6.00;;;;;17.09;44.58;100867.19;5097914;27;45356;-62
2022/05/31 07:11:14;;;;;;;;;7.00;7.00;;;;;17.11;44.02;100865.22;5099429;27;45370;-62
2022/05/31 07:13:40;;;;;;;;;6.25;5.50;;;;;17.05;44.17;100867.50;5097624;27;46443;-61
2022/05/31 07:16:05;;;;;;;;;5.00;4.75;;;;;17.06;44.11;100867.41;5097538;27;47271;-60
2022/05/31 07:18:30;;;;;;;;;4.00;4.00;;;;;17.08;43.68;100867.31;5099033;27;45264;-61
2022/05/31 07:20:56;;;;;;;;;5.00;5.00;;;;;17.10;43.58;100868.91;5101914;27;45409;-61
2022/05/31 07:23:22;;;;;;;;;4.50;3.00;;;;;17.14;43.76;100869.56;5102596;27;45474;-61
2022/05/31 07:25:47;;;;;;;;;4.00;4.00;;;;;17.19;43.95;100879.09;5101219;27;45379;-61
2022/05/31 07:28:12;;;;;;;;;5.00;5.00;;;;;17.25;43.81;100875.97;5102760;27;45580;-60
2022/05/31 07:30:38;;;;;;;;;4.75;4.75;;;;;17.28;43.34;100867.59;5081042;27;45317;-62
2022/05/31 07:33:04;;;;;;;;;7.00;5.00;;;;;17.36;43.53;100873.34;5083849;27;46350;-61
2022/05/31 07:35:29;;;;;;;;;7.00;7.00;;;;;17.39;43.49;100869.53;5102417;27;45283;-61
2022/05/31 07:37:55;;;;;;;;;4.25;4.25;;;;;17.34;43.94;100874.44;5102721;27;45231;-62
2022/05/31 07:40:20;;;;;;;;;9.50;7.00;;;;;17.28;44.18;100881.16;5084231;27;45263;-62
2022/05/31 07:42:45;;;;;;;;;7.00;6.00;;;;;17.29;44.49;100884.72;5102512;27;45292;-61
2022/05/31 07:45:11;;;;;;;;;8.00;8.00;;;;;17.31;44.88;100882.78;5102198;27;45358;-62
2022/05/31 07:47:36;;;;;;;;;9.25;7.00;;;;;17.40;44.04;100879.41;5083826;27;45199;-61
2022/05/31 07:50:02;;;;;;;;;6.25;6.25;;;;;17.34;43.58;100872.59;5084023;27;45285;-62
2022/05/31 07:52:28;;;;;;;;;5.50;5.50;;;;;17.45;44.24;100879.94;5105432;27;45433;-62
2022/05/31 07:54:53;;;;;;;;;7.00;5.00;;;;;17.47;43.94;100863.56;5066762;27;45436;-61
2022/05/31 08:00:04;;;;;;;;;5.50;3.50;;;;;17.78;43.53;100879.34;5102152;27;45323;-60
2022/05/31 08:02:30;;;;;;;;;5.50;5.00;;;;;17.85;42.94;100886.06;5083815;27;45493;-62
2022/05/31 08:04:55;;;;;;;;;7.00;6.50;;;;;17.93;43.13;100880.09;5083326;27;45411;-63
2022/05/31 08:07:21;;;;;;;;;5.75;5.75;;;;;17.97;42.84;100871.59;5102113;27;45371;-61
2022/05/31 08:09:46;;;;;;;;;5.50;5.50;;;;;18.08;42.48;100876.22;5100929;27;45458;-62
2022/05/31 08:12:12;;;;;;;;;4.75;4.75;;;;;18.13;42.71;100876.72;5102175;27;45304;-62
2022/05/31 08:14:38;;;;;;;;;4.00;4.00;;;;;18.13;42.64;100877.59;5101464;27;45975;-62
2022/05/31 08:17:05;;;;;;;;;5.50;5.50;;;;;18.12;42.29;100877.69;5083667;27;45347;-61
2022/05/31 08:19:31;;;;;;;;;5.00;5.00;;;;;18.13;43.10;100874.88;5102045;27;45465;-61
2022/05/31 08:21:57;;;;;;;;;5.00;5.00;;;;;18.22;42.42;100880.59;5101895;27;45316;-61
2022/05/31 08:24:24;;;;;;;;;6.75;6.75;;;;;18.23;41.76;100872.34;5101623;27;45525;-62
2022/05/31 08:26:49;;;;;;;;;7.75;5.25;;;;;18.27;42.37;100862.13;5101855;27;45281;-62
2022/05/31 08:29:16;;;;;;;;;5.75;5.75;;;;;18.32;42.19;100868.94;5101162;27;45417;-61
2022/05/31 08:31:41;;;;;;;;;5.25;4.50;;;;;18.40;41.82;100869.22;5098949;27;46512;-61
2022/05/31 08:34:07;;;;;;;;;3.75;3.75;;;;;18.48;41.42;100876.75;5101138;27;45377;-61
2022/05/31 08:36:33;;;;;;;;;4.75;3.50;;;;;18.52;41.03;100873.72;5101475;27;45376;-61
2022/05/31 08:38:59;;;;;;;;;5.00;3.50;;;;;18.54;41.42;100869.00;5101690;27;45398;-61
2022/05/31 08:41:27;;;;;;;;;4.00;4.00;;;;;18.53;41.24;100858.28;5101476;27;45340;-61
2022/05/31 08:44:00;;;;;;;;;4.00;3.75;;;;;18.63;40.88;100874.78;5101087;27;46139;-61
2022/05/31 08:47:00;;;;;;;;;3.00;3.00;;;;;18.65;39.33;100868.22;5101564;27;45382;-61
2022/05/31 08:52:49;;;;;;;;;5.50;3.00;;;;;18.74;39.66;100875.66;5104174;27;46183;-60
2022/05/31 08:58:30;;;;;;;;;5.75;3.00;;;;;18.81;38.67;100876.91;5101255;27;45395;-61
2022/05/31 09:00:58;;;;;;;;;4.00;3.00;;;;;18.79;38.43;100868.03;5101417;27;45392;-61
2022/05/31 09:03:29;;;;;;;;;2.50;2.50;;;;;18.81;37.79;100867.88;5082591;27;47235;-62
2022/05/31 09:06:07;;;;;;;;;2.50;2.50;;;;;18.77;38.63;100855.53;5082662;27;45359;-61
2022/05/31 09:08:36;;;;;;;;;4.00;2.00;;;;;18.87;37.96;100868.31;5078878;28;45466;-61
2022/05/31 09:11:29;;;;;;;;;2.00;2.00;;;;;18.86;38.01;100874.72;5093360;27;45547;-61
2022/05/31 09:14:13;;;;;;;;;4.00;4.00;;;;;18.84;38.13;100865.81;5082312;27;45841;-61
2022/05/31 09:17:22;;;;;;;;;3.75;3.75;;;;;18.86;37.33;100869.28;5100984;27;45952;-61
2022/05/31 09:19:58;;;;;;;;;3.00;3.00;;;;;18.85;37.58;100872.97;5034307;28;45385;-62
2022/05/31 09:22:24;;;;;;;;;3.25;3.25;;;;;18.89;37.96;100871.72;5084108;27;45605;-62
2022/05/31 09:24:49;;;;;;;;;2.00;2.00;;;;;18.91;36.96;100863.47;5099443;27;46680;-61
2022/05/31 09:27:21;;;;;;;;;3.50;2.50;;;;;18.99;36.44;100877.31;5100762;27;46349;-62
2022/05/31 09:30:10;;;;;;;;;2.00;2.00;;;;;18.86;35.70;100858.41;5100540;27;45364;-61
2022/05/31 09:32:35;;;;;;;;;2.75;1.75;;;;;18.99;35.36;100871.00;5100603;27;45545;-61
2022/05/31 09:35:31;;;;;;;;;2.50;2.50;;;;;19.06;35.25;100875.84;5082213;27;45836;-61
2022/05/31 09:38:10;;;;;;;;;4.50;2.00;;;;;19.07;36.15;100866.69;5099202;27;47357;-61
2022/05/31 09:40:47;;;;;;;;;3.25;3.00;;;;;19.14;36.10;100870.66;5100617;27;45189;-61
2022/05/31 09:43:30;;;;;;;;;2.00;2.00;;;;;19.23;36.40;100867.22;5100670;27;45410;-61
2022/05/31 09:46:08;;;;;;;;;2.00;2.00;;;;;19.36;35.78;100866.25;5082004;27;45446;-60
2022/05/31 09:48:54;;;;;;;;;2.00;2.00;;;;;19.44;35.52;100861.03;5099971;27;47347;-61
2022/05/31 09:51:28;;;;;;;;;2.00;2.00;;;;;19.51;34.67;100865.91;5081252;27;45481;-61
2022/05/31 09:59:26;;;;;;;;;2.00;2.00;;;;;19.70;34.08;100861.69;5099604;27;45900;-61
2022/05/31 10:01:53;;;;;;;;;3.00;2.00;;;;;19.69;33.17;100865.38;5100010;27;45447;-62
2022/05/31 10:04:29;;;;;;;;;2.00;2.00;;;;;19.70;33.71;100864.41;5082069;27;45289;-62
2022/05/31 10:07:04;;;;;;;;;2.25;2.25;;;;;19.73;32.94;100862.31;5100077;27;45306;-61
2022/05/31 10:09:39;;;;;;;;;2.00;2.00;;;;;19.65;31.85;100852.03;5081454;27;45478;-62
2022/05/31 10:12:14;;;;;;;;;1.75;1.75;;;;;19.70;32.29;100857.09;5100142;27;45345;-62
2022/05/31 10:14:46;;;;;;;;;2.00;2.00;;;;;19.78;32.49;100859.19;5099822;27;45398;-61
2022/05/31 10:17:33;;;;;;;;;2.25;2.25;;;;;19.82;32.80;100864.25;5099826;27;45336;-62
2022/05/31 10:20:15;;;;;;;;;2.25;2.25;;;;;19.86;32.48;100863.00;5081511;27;47395;-62
2022/05/31 10:22:55;;;;;;;;;4.00;2.50;;;;;19.86;32.20;100867.59;5098489;27;45291;-61
2022/05/31 10:25:28;;;;;;;;;2.75;2.75;;;;;19.70;31.72;100839.91;5100156;27;45304;-61
2022/05/31 10:28:00;;;;;;;;;3.75;1.75;;;;;19.80;32.42;100868.09;5074916;27;46009;-61
2022/05/31 10:30:27;;;;;;;;;2.00;2.00;;;;;19.74;31.80;100858.56;5079981;27;47168;-61
2022/05/31 10:32:57;;;;;;;;;3.50;3.50;;;;;19.73;31.74;100862.31;5094816;27;45394;-61
2022/05/31 10:35:30;;;;;;;;;3.50;2.75;;;;;19.77;31.63;100868.34;5077435;27;45273;-61
2022/05/31 10:38:17;;;;;;;;;1.50;1.50;;;;;19.77;32.00;100863.75;5097570;27;46351;-61
2022/05/31 10:40:54;;;;;;;;;4.00;4.00;;;;;19.92;32.85;100859.75;5071858;27;47245;-61
2022/05/31 10:43:28;;;;;;;;;2.00;2.00;;;;;20.10;31.69;100853.78;5093849;27;45317;-61
2022/05/31 10:45:55;;;;;;;;;2.00;2.00;;;;;20.22;31.70;100852.75;5095722;27;45254;-62
2022/05/31 10:48:21;;;;;;;;;1.00;1.00;;;;;20.25;32.33;100844.31;5098056;27;45502;-61
2022/05/31 10:51:13;;;;;;;;;3.00;3.00;;;;;20.41;32.13;100860.28;5096814;27;46160;-61
2022/05/31 10:53:54;;;;;;;;;3.00;2.00;;;;;20.49;31.83;100864.06;5096449;27;45509;-61
2022/05/31 10:56:25;;;;;;;;;1.00;1.00;;;;;20.44;31.76;100862.72;5094356;27;45469;-62
2022/05/31 10:58:59;;;;;;;;;2.00;2.00;;;;;20.41;31.13;100866.59;5095316;27;45612;-60
2022/05/31 11:01:54;;;;;;;;;3.00;1.50;;;;;20.31;31.82;100843.81;5093777;27;45616;-61
2022/05/31 11:04:25;;;;;;;;;1.50;1.50;;;;;20.43;31.21;100861.84;5078747;27;45501;-61
2022/05/31 11:07:29;;;;;;;;;2.75;2.75;;;;;20.37;31.69;100871.41;5095430;27;45446;-61
2022/05/31 11:12:59;;;;;;;;;2.00;2.00;;;;;20.43;32.55;100863.72;5085977;27;45486;-62
2022/05/31 11:15:51;;;;;;;;;3.25;3.25;;;;;20.49;32.66;100869.53;5086518;27;45281;-62
2022/05/31 11:18:45;;;;;;;;;2.00;2.00;;;;;20.54;32.67;100869.97;5080826;27;45374;-61
2022/05/31 11:21:24;;;;;;;;;2.25;1.00;;;;;20.54;32.71;100872.72;5099066;27;45367;-61
2022/05/31 11:24:08;;;;;;;;;2.00;1.00;;;;;20.48;32.95;100866.94;5098839;27;45525;-61
2022/05/31 11:27:07;;;;;;;;;3.00;3.00;;;;;20.48;33.16;100877.81;5098091;27;45359;-62
2022/05/31 11:29:53;;;;;;;;;5.50;2.25;;;;;20.43;33.13;100872.75;5080345;27;45352;-62
2022/05/31 11:32:30;;;;;;;;;3.50;3.50;;;;;20.38;33.19;100864.13;5098687;27;45285;-62
2022/05/31 11:34:56;;;;;;;;;3.00;2.25;;;;;20.35;33.26;100870.69;5099161;27;46218;-61
2022/05/31 11:37:37;;;;;;;;;4.00;3.25;;;;;20.29;32.58;100873.03;5080418;27;45506;-61
2022/05/31 11:40:23;;;;;;;;;1.75;1.75;;;;;20.26;33.11;100871.41;5077230;28;45372;-62
2022/05/31 11:43:14;;;;;;;;;3.00;3.00;;;;;20.31;33.45;100876.50;5098770;27;45489;-61
2022/05/31 11:45:52;;;;;;;;;3.00;2.75;;;;;20.33;32.83;100875.34;5098723;27;45441;-62
2022/05/31 11:48:36;;;;;;;;;3.25;3.25;;;;;20.30;33.38;100874.75;5098745;27;45283;-61
2022/05/31 11:51:13;;;;;;;;;3.50;3.00;;;;;20.33;33.00;100882.69;5098530;27;45392;-62
2022/05/31 11:53:51;;;;;;;;;4.50;2.50;;;;;20.42;33.38;100884.63;5069541;27;45337;-61
2022/05/31 11:56:22;;;;;;;;;3.25;3.25;;;;;20.51;33.49;100880.25;5098602;27;46250;-62
2022/05/31 11:59:07;;;;;;;;;2.75;2.75;;;;;20.56;32.71;100881.63;5098330;27;45308;-63
2022/05/31 12:01:52;;;;;;;;;3.50;2.50;;;;;20.62;32.48;100870.19;5077259;27;45193;-62
2022/05/31 12:04:21;;;;;;;;;1.25;1.25;;;;;20.74;32.03;100879.19;5098558;27;45379;-61
2022/05/31 12:07:09;;;;;;;;;2.00;2.00;;;;;20.83;31.55;100870.22;5099653;27;45492;-61
2022/05/31 12:09:50;;;;;;;;;2.75;2.75;;;;;20.90;31.20;100870.53;5102091;27;45252;-61
2022/05/31 12:12:36;;;;;;;;;1.75;1.75;;;;;21.03;31.17;100873.91;5102223;27;45229;-62
2022/05/31 12:15:22;;;;;;;;;0.00;0.00;;;;;21.26;30.64;100872.81;5101502;27;45371;-61
2022/05/31 12:18:00;;;;;;;;;3.25;2.50;;;;;21.31;30.22;100875.97;5101507;27;46152;-61
2022/05/31 12:20:38;;;;;;;;;0.50;0.50;;;;;21.28;30.03;100869.91;5101975;27;45399;-61
2022/05/31 12:23:09;;;;;;;;;2.25;2.25;;;;;21.33;30.70;100870.38;5101819;27;45260;-61
2022/05/31 12:25:41;;;;;;;;;1.75;1.75;;;;;21.43;29.87;100864.00;5101718;27;45509;-61
2022/05/31 12:28:19;;;;;;;;;2.50;1.75;;;;;21.60;30.19;100864.34;5083092;27;45508;-61
2022/05/31 12:30:54;;;;;;;;;1.50;1.50;;;;;21.75;29.87;100858.34;5101689;27;45389;-61
2022/05/31 12:33:43;;;;;;;;;2.50;2.25;;;;;21.95;29.78;100863.88;5101396;27;45403;-61
2022/05/31 12:36:13;;;;;;;;;2.00;2.00;;;;;22.13;28.35;100865.78;5101549;27;45149;-61
2022/05/31 12:39:21;;;;;;;;;0.75;0.75;;;;;22.35;29.04;100867.41;5101555;27;46331;-60
2022/05/31 12:41:50;;;;;;;;;3.25;1.50;;;;;22.28;28.10;100868.97;5101260;27;45276;-60
2022/05/31 12:44:33;;;;;;;;;2.00;2.00;;;;;22.17;28.72;100859.03;5101263;27;45358;-62
2022/05/31 12:47:17;;;;;;;;;1.25;1.25;;;;;22.07;29.16;100858.16;5101262;27;45286;-60
2022/05/31 12:50:04;;;;;;;;;2.00;2.00;;;;;22.01;28.77;100860.59;5101389;27;45310;-61
2022/05/31 12:55:25;;;;;;;;;3.75;2.00;;;;;21.76;28.98;100862.81;5101239;27;45464;-62
2022/05/31 12:58:35;;;;;;;;;2.00;2.00;;;;;21.62;29.08;100863.16;5101197;27;45980;-61
2022/05/31 13:01:05;;;;;;;;;1.75;1.75;;;;;21.49;28.82;100868.88;5099925;27;45383;-61
2022/05/31 13:03:32;;;;;;;;;1.00;1.00;;;;;21.39;29.04;100869.84;5100959;27;45417;-60
2022/05/31 13:06:30;;;;;;;;;1.25;1.25;;;;;21.27;29.51;100865.44;5101263;27;45413;-61
2022/05/31 13:08:59;;;;;;;;;1.25;1.25;;;;;21.34;29.30;100859.34;5066431;27;45462;-61
2022/05/31 13:19:43;;;;;;;;;1.50;1.50;;;;;22.09;29.81;100853.44;5100771;27;45438;-61
2022/05/31 13:22:13;;;;;;;;;2.00;2.00;;;;;22.55;28.65;100849.09;5100681;27;45485;-61
2022/05/31 13:24:47;;;;;;;;;1.00;1.00;;;;;22.90;28.31;100851.25;5100790;27;45323;-61
2022/05/31 13:27:21;;;;;;;;;2.00;1.50;;;;;23.25;27.72;100845.13;5100803;27;45286;-61
2022/05/31 13:30:18;;;;;;;;;2.50;1.75;;;;;23.51;27.27;100850.81;5081291;27;45324;-60
2022/05/31 13:32:44;;;;;;;;;2.00;2.00;;;;;23.74;26.62;100835.69;5099600;27;45998;-62
2022/05/31 13:35:25;;;;;;;;;1.00;1.00;;;;;24.04;25.82;100845.47;5081982;27;45423;-60
2022/05/31 13:37:55;;;;;;;;;2.00;1.75;;;;;23.89;25.46;100842.41;5078889;28;45323;-60
2022/05/31 13:40:24;;;;;;;;;0.75;0.75;;;;;23.59;25.14;100860.00;5074485;27;46053;-61
2022/05/31 13:42:53;;;;;;;;;1.25;1.25;;;;;23.33;25.39;100840.63;5100435;27;46138;-61
2022/05/31 13:45:22;;;;;;;;;0.50;0.50;;;;;23.60;26.51;100842.56;5081765;27;45347;-61
2022/05/31 13:47:58;;;;;;;;;3.50;0.50;;;;;24.20;26.45;100837.41;5099609;27;45384;-61
2022/05/31 13:50:34;;;;;;;;;1.25;1.25;;;;;24.40;25.21;100833.56;5102050;27;45384;-61
2022/05/31 13:53:04;;;;;;;;;2.50;0.50;;;;;24.39;25.26;100840.06;5107367;27;45616;-62
2022/05/31 13:55:31;;;;;;;;;1.00;1.00;;;;;24.05;25.58;100852.69;5100268;27;45154;-61
2022/05/31 13:57:59;;;;;;;;;1.00;1.00;;;;;23.80;26.36;100834.25;5100512;27;45246;-61
2022/05/31 14:00:41;;;;;;;;;2.50;1.75;;;;;24.19;26.22;100843.91;5099817;27;45400;-62
2022/05/31 14:03:18;;;;;;;;;2.75;2.00;;;;;24.44;26.04;100845.03;5100031;27;46140;-61
2022/05/31 14:06:10;;;;;;;;;2.50;1.75;;;;;24.54;25.52;100845.81;5100261;27;45394;-61
2022/05/31 14:08:56;;;;;;;;;2.75;1.00;;;;;24.91;25.03;100834.69;5100113;27;45323;-61
2022/05/31 14:11:40;;;;;;;;;0.50;0.50;;;;;25.17;24.79;100832.81;5099916;27;45482;-61
2022/05/31 14:14:17;;;;;;;;;1.50;1.50;;;;;24.97;24.85;100860.59;5099682;27;45317;-61
2022/05/31 14:16:43;;;;;;;;;1.75;1.75;;;;;24.24;25.42;100802.41;5099684;27;45612;-61
2022/05/31 14:19:16;;;;;;;;;1.00;1.00;;;;;24.46;25.43;100843.88;5099867;27;45563;-61
2022/05/31 14:21:43;;;;;;;;;0.75;0.75;;;;;24.40;25.41;100852.75;5099819;27;45384;-60
2022/05/31 14:24:11;;;;;;;;;1.75;1.00;;;;;24.33;25.52;100845.31;5099648;27;45494;-60
2022/05/31 14:26:39;;;;;;;;;0.75;0.75;;;;;24.54;25.54;100840.34;5099654;27;45246;-61
2022/05/31 14:29:19;;;;;;;;;1.25;1.25;;;;;24.62;25.26;100850.50;5084993;27;45292;-62
2022/05/31 14:31:50;;;;;;;;;1.00;1.00;;;;;24.44;25.42;100834.94;5086340;27;45631;-60
2022/05/31 14:34:27;;;;;;;;;3.00;2.00;;;;;24.61;25.96;100844.16;5099266;27;45334;-62
2022/05/31 14:36:56;;;;;;;;;1.00;1.00;;;;;24.98;24.90;100840.38;5099489;27;45438;-62
2022/05/31 14:39:27;;;;;;;;;0.50;0.50;;;;;25.48;25.80;100835.88;5099459;27;45361;-61
2022/05/31 14:41:55;;;;;;;;;1.00;1.00;;;;;26.12;24.36;100825.28;5099424;27;45422;-61
2022/05/31 14:44:47;;;;;;;;;0.75;0.75;;;;;26.56;23.64;100831.38;5098773;27;45378;-61
2022/05/31 14:47:21;;;;;;;;;1.00;0.75;;;;;26.52;24.21;100827.28;5098968;27;45560;-61
2022/05/31 14:50:08;;;;;;;;;1.75;1.75;;;;;26.60;23.35;100819.91;5099639;27;45544;-61
2022/05/31 14:52:49;;;;;;;;;4.50;2.00;;;;;26.47;23.43;100830.53;5082077;27;45458;-60
2022/05/31 14:55:21;;;;;;;;;0.50;0.50;;;;;26.58;23.55;100824.69;5078664;28;47126;-61
2022/05/31 15:00:55;;;;;;;;;2.00;2.00;;;;;27.72;21.15;100824.50;5083333;27;45360;-60
2022/05/31 15:03:55;;;;;;;;;2.75;1.00;;;;;27.98;20.98;100818.69;5079913;27;45288;-61
2022/05/31 15:06:42;;;;;;;;;0.75;0.75;;;;;28.63;20.45;100824.63;5099173;27;45388;-61
2022/05/31 15:09:19;;;;;;;;;0.50;0.50;;;;;29.10;20.99;100821.59;5099114;27;45224;-63
2022/05/31 15:20:15;;;;;;;;;2.50;1.00;;;;;28.07;22.18;100821.19;5089078;27;45442;-61
2022/05/31 15:22:42;;;;;;;;;0.75;0.75;;;;;27.98;22.03;100846.25;5078305;27;45502;-61
2022/05/31 15:25:13;;;;;;;;;0.00;0.00;;;;;27.85;21.92;100836.66;5097998;27;45559;-60
2022/05/31 15:27:38;;;;;;;;;2.00;2.00;;;;;27.26;22.51;100840.81;5098602;27;45535;-62
2022/05/31 15:30:05;;;;;;;;;1.75;1.50;;;;;26.79;23.56;100828.84;5098202;27;45458;-61
2022/05/31 15:32:31;;;;;;;;;2.50;1.00;;;;;26.56;24.21;100840.50;5098542;27;45418;-61
2022/05/31 15:34:57;;;;;;;;;1.00;1.00;;;;;26.22;24.45;100840.59;5098529;27;45597;-61
2022/05/31 15:37:27;;;;;;;;;0.75;0.75;;;;;25.95;24.58;100838.13;5098728;27;45216;-62
2022/05/31 15:39:53;;;;;;;;;1.00;1.00;;;;;25.68;25.58;100824.69;5098914;27;45438;-61
2022/05/31 15:42:20;;;;;;;;;0.00;0.00;;;;;25.59;25.18;100840.25;5102244;27;45382;-61
2022/05/31 15:44:46;;;;;;;;;0.00;0.00;;;;;25.20;24.77;100854.41;5101840;27;45391;-61
2022/05/31 15:47:12;;;;;;;;;2.25;0.75;;;;;24.85;24.86;100846.25;5101665;27;45514;-62
2022/05/31 15:49:39;;;;;;;;;0.75;0.75;;;;;24.65;25.42;100852.94;5102194;27;45331;-61
2022/05/31 15:52:23;;;;;;;;;1.50;1.25;;;;;24.50;26.45;100842.53;5105054;27;45512;-60
2022/05/31 15:54:55;;;;;;;;;3.00;1.75;;;;;24.58;26.84;100863.69;5101688;27;45255;-60
2022/05/31 15:57:27;;;;;;;;;0.75;0.75;;;;;24.55;27.74;100847.56;5101842;27;46523;-61
2022/05/31 15:59:52;;;;;;;;;2.00;2.00;;;;;24.43;28.09;100855.16;5101616;27;45425;-61
2022/05/31 16:02:18;;;;;;;;;3.25;2.00;;;;;24.39;28.73;100867.47;5101950;27;45332;-61
2022/05/31 16:04:43;;;;;;;;;1.75;1.75;;;;;24.28;29.23;100869.56;5101805;27;45371;-61
2022/05/31 16:07:15;;;;;;;;;0.75;0.75;;;;;24.25;29.13;100857.00;5102069;27;46950;-61
2022/05/31 16:09:44;;;;;;;;;1.25;1.25;;;;;24.25;29.31;100862.50;5101863;27;46095;-61
2022/05/31 16:12:19;;;;;;;;;0.50;0.50;;;;;24.50;29.58;100861.72;5102001;27;45467;-61
2022/05/31 16:14:46;;;;;;;;;2.00;2.00;;;;;24.84;29.34;100867.31;5101230;27;46242;-60
2022/05/31 16:17:12;;;;;;;;;2.00;2.00;;;;;25.07;29.76;100866.84;5101395;27;45382;-61
2022/05/31 16:19:37;;;;;;;;;2.00;2.00;;;;;25.39;29.16;100860.69;5100351;27;45223;-60
2022/05/31 16:22:04;;;;;;;;;2.25;2.25;;;;;25.65;28.83;100866.19;5101745;27;45492;-63
2022/05/31 16:24:31;;;;;;;;;2.25;2.25;;;;;25.98;28.75;100857.91;5101726;27;45388;-60
2022/05/31 16:26:57;;;;;;;;;3.00;2.00;;;;;26.26;28.52;100861.28;5082989;27;47464;-60
2022/05/31 16:29:23;;;;;;;;;3.00;3.00;;;;;26.25;27.65;100865.03;5101329;27;45484;-61
2022/05/31 16:31:48;;;;;;;;;2.00;2.00;;;;;25.97;27.65;100867.16;5100842;27;45493;-61
2022/05/31 16:34:21;;;;;;;;;2.00;2.00;;;;;25.80;27.82;100872.75;5100575;27;45689;-61
2022/05/31 16:36:48;;;;;;;;;3.25;2.00;;;;;25.57;28.83;100867.84;5101419;27;46330;-61
2022/05/31 16:42:01;;;;;;;;;2.75;2.75;;;;;25.21;29.13;100875.34;5101277;27;45359;-61
2022/05/31 16:44:27;;;;;;;;;1.75;1.75;;;;;25.21;29.67;100878.09;5101128;27;45481;-62
2022/05/31 16:46:53;;;;;;;;;3.75;2.50;;;;;25.31;29.43;100872.50;5101384;27;45337;-60
2022/05/31 16:49:20;;;;;;;;;0.75;0.75;;;;;25.48;29.20;100885.28;5101489;27;45216;-61
2022/05/31 16:51:48;;;;;;;;;3.00;2.00;;;;;25.69;29.09;100879.41;5103729;27;45387;-61
2022/05/31 16:54:23;;;;;;;;;1.25;1.25;;;;;25.77;28.93;100887.72;5087729;27;45481;-60
2022/05/31 16:57:00;;;;;;;;;3.25;2.00;;;;;25.87;28.58;100879.31;5101118;27;45302;-60
2022/05/31 16:59:28;;;;;;;;;3.00;3.00;;;;;25.93;29.11;100887.78;5100484;27;45546;-61
2022/05/31 17:01:55;;;;;;;;;2.00;2.00;;;;;25.97;29.34;100896.53;5100886;27;45249;-59
2022/05/31 17:04:21;;;;;;;;;1.50;1.00;;;;;25.61;28.78;100884.88;5099571;27;45995;-64
2022/05/31 17:15:22;;;;;;;;;2.00;2.00;;;;;25.35;29.66;100897.75;5100365;27;45311;-63
2022/05/31 17:17:47;;;;;;;;;2.50;2.50;;;;;25.44;29.70;100897.59;5100365;27;45427;-62
2022/05/31 17:20:18;;;;;;;;;2.50;1.00;;;;;25.51;28.75;100889.59;5099886;27;45569;-62